Time;durP1;ratioP1;P1;durP2;ratioP2;P2;SDS_P1;SDS_P2;PMS_P1;PMS_P2;Temp;Humidity;BMP_temperature;BMP_pressure;BME280_temperature;BME280_humidity;BME280_pressure;Samples;Min_cycle;Max_cycle;Signal;HPM_P1;HPM_P2
2021/11/15 00:01:21;;;;;;;62.47;31.92;;;;;;;10.44;57.02;95743.56;4992655;28;20026;-72
2021/11/15 00:03:48;;;;;;;60.10;30.98;;;;;;;10.85;57.17;95740.25;4992224;28;20057;-71
2021/11/15 00:06:13;;;;;;;59.95;31.33;;;;;;;10.88;56.23;95739.69;4992347;28;20042;-71
2021/11/15 00:08:39;;;;;;;65.55;32.70;;;;;;;10.67;56.52;95726.72;4974550;28;20270;-72
2021/11/15 00:11:04;;;;;;;58.70;30.92;;;;;;;10.47;57.14;95731.53;4987353;28;20054;-71
2021/11/15 00:13:30;;;;;;;57.47;29.48;;;;;;;10.66;57.50;95741.09;4972425;28;20608;-71
2021/11/15 00:15:55;;;;;;;56.42;30.58;;;;;;;10.61;56.79;95741.16;4972833;28;20116;-72
2021/11/15 00:18:21;;;;;;;59.92;31.58;;;;;;;10.68;56.50;95730.94;4973582;28;20027;-72
2021/11/15 00:20:46;;;;;;;52.72;28.70;;;;;;;10.05;58.03;95725.97;4972738;28;20030;-72
2021/11/15 00:23:12;;;;;;;61.67;29.80;;;;;;;9.99;58.13;95732.44;4986511;28;20029;-72
2021/11/15 00:25:37;;;;;;;54.83;29.27;;;;;;;9.88;58.31;95723.78;4984896;28;20137;-72
2021/11/15 00:28:03;;;;;;;57.70;28.75;;;;;;;9.72;59.05;95732.22;4992217;28;20030;-72
2021/11/15 00:30:28;;;;;;;56.50;31.85;;;;;;;10.31;58.50;95731.75;4990322;28;20034;-72
2021/11/15 00:32:54;;;;;;;59.05;29.90;;;;;;;10.41;57.68;95750.22;4991691;28;20077;-70
2021/11/15 00:35:19;;;;;;;65.68;31.38;;;;;;;10.41;57.27;95738.81;4991762;28;20431;-72
2021/11/15 00:37:45;;;;;;;56.72;28.88;;;;;;;10.39;56.79;95746.28;4985938;28;20066;-72
2021/11/15 00:40:13;;;;;;;60.58;29.70;;;;;;;10.67;56.07;95755.97;4988816;28;20046;-71
2021/11/15 00:42:38;;;;;;;55.78;29.02;;;;;;;10.96;55.42;95747.03;4991707;28;20026;-72
2021/11/15 00:45:06;;;;;;;51.80;28.55;;;;;;;11.13;55.32;95749.16;4991509;28;20476;-72
2021/11/15 00:47:32;;;;;;;58.15;29.05;;;;;;;10.49;56.90;95754.09;4991309;28;20062;-72
2021/11/15 00:49:57;;;;;;;58.70;31.02;;;;;;;10.37;56.58;95746.56;4991070;28;20096;-72
2021/11/15 00:52:23;;;;;;;57.70;29.75;;;;;;;10.33;56.66;95736.78;4995457;28;20029;-72
2021/11/15 00:54:49;;;;;;;54.50;28.70;;;;;;;9.86;57.23;95746.41;4982785;28;20033;-72
2021/11/15 00:57:15;;;;;;;56.92;29.40;;;;;;;10.12;57.97;95757.50;4973799;28;20027;-73
2021/11/15 00:59:40;;;;;;;56.13;30.15;;;;;;;10.49;57.62;95748.00;4971639;28;20139;-73
2021/11/15 01:02:05;;;;;;;58.42;30.15;;;;;;;10.23;55.99;95715.63;4970645;28;20489;-72
2021/11/15 01:04:31;;;;;;;55.47;29.67;;;;;;;10.52;56.76;95750.09;4971923;28;20037;-73
2021/11/15 01:06:57;;;;;;;51.05;27.73;;;;;;;9.97;58.03;95749.72;4977906;28;20159;-71
2021/11/15 01:09:24;;;;;;;58.88;29.42;;;;;;;9.91;58.88;95751.66;4983590;28;20027;-72
2021/11/15 01:11:51;;;;;;;59.63;28.50;;;;;;;9.84;58.71;95759.19;4991164;28;20026;-71
2021/11/15 01:14:16;;;;;;;51.10;27.65;;;;;;;10.26;58.00;95742.47;4973287;28;20026;-71
2021/11/15 01:16:42;;;;;;;46.83;25.52;;;;;;;9.99;58.22;95743.06;4970234;28;20109;-72
2021/11/15 01:19:08;;;;;;;44.22;26.25;;;;;;;10.15;58.07;95763.03;4971237;28;20029;-71
2021/11/15 01:21:33;;;;;;;48.30;26.02;;;;;;;10.53;57.08;95741.81;4971809;28;20022;-72
2021/11/15 01:23:59;;;;;;;43.30;25.23;;;;;;;10.62;56.62;95747.28;4982639;28;20027;-71
2021/11/15 01:26:25;;;;;;;46.03;24.80;;;;;;;10.80;56.50;95746.47;4989899;28;20034;-71
2021/11/15 01:28:51;;;;;;;41.38;24.30;;;;;;;10.60;56.65;95741.47;4976666;28;20026;-72
2021/11/15 01:31:17;;;;;;;42.35;23.90;;;;;;;10.63;56.82;95723.03;4970753;28;20440;-71
2021/11/15 01:33:43;;;;;;;41.50;23.55;;;;;;;10.70;56.22;95736.00;4971340;28;20029;-72
2021/11/15 01:36:08;;;;;;;44.65;25.15;;;;;;;10.88;55.88;95745.81;4971199;28;20031;-72
2021/11/15 01:38:34;;;;;;;46.88;25.33;;;;;;;10.66;56.00;95745.63;4982010;28;20037;-73
2021/11/15 01:41:02;;;;;;;48.35;25.42;;;;;;;10.53;56.44;95735.72;4986013;28;20081;-73
2021/11/15 01:43:27;;;;;;;49.28;27.00;;;;;;;10.15;58.22;95748.97;4990432;28;20026;-71
2021/11/15 01:45:53;;;;;;;43.28;25.30;;;;;;;9.97;59.02;95753.16;4990817;28;20119;-73
2021/11/15 01:48:19;;;;;;;44.53;24.48;;;;;;;9.96;59.63;95751.59;4989412;28;20034;-74
2021/11/15 01:50:45;;;;;;;46.83;25.90;;;;;;;10.24;57.34;95738.53;4990298;28;20088;-74
2021/11/15 01:53:11;;;;;;;39.92;24.50;;;;;;;10.38;57.53;95752.66;4988903;28;20065;-72
2021/11/15 01:55:38;;;;;;;49.55;25.45;;;;;;;10.46;56.76;95733.41;4983347;28;20054;-71
2021/11/15 01:58:08;;;;;;;52.50;27.25;;;;;;;10.61;57.36;95745.72;4990285;28;20031;-71
2021/11/15 02:00:41;;;;;;;54.45;27.38;;;;;;;10.40;56.85;95743.34;4990041;28;20025;-72
2021/11/15 02:03:07;;;;;;;49.65;25.85;;;;;;;10.81;56.36;95748.06;4990289;28;20029;-72
2021/11/15 02:05:32;;;;;;;41.53;23.70;;;;;;;10.66;56.58;95732.34;4990621;28;20113;-72
2021/11/15 02:07:58;;;;;;;45.42;24.83;;;;;;;10.49;56.61;95726.72;4990092;28;20081;-72
2021/11/15 02:10:24;;;;;;;43.90;24.85;;;;;;;10.61;57.13;95740.38;4981602;28;20110;-72
2021/11/15 02:12:50;;;;;;;43.78;24.35;;;;;;;10.45;56.49;95736.38;4982173;28;20041;-72
2021/11/15 02:15:16;;;;;;;42.55;22.70;;;;;;;10.93;56.02;95726.31;4990527;28;20528;-72
2021/11/15 02:17:44;;;;;;;47.03;24.95;;;;;;;10.68;56.54;95722.97;4990103;28;20062;-72
2021/11/15 02:20:46;;;;;;;40.47;22.25;;;;;;;10.84;55.64;95725.38;4989949;28;20034;-72
2021/11/15 02:23:12;;;;;;;39.03;22.02;;;;;;;10.71;55.58;95731.47;4989602;28;20431;-72
2021/11/15 02:25:38;;;;;;;31.05;19.85;;;;;;;9.53;58.55;95735.63;4985455;28;20037;-74
2021/11/15 02:28:05;;;;;;;34.75;20.65;;;;;;;10.41;57.45;95728.97;4982222;28;20019;-72
2021/11/15 02:30:30;;;;;;;44.83;22.00;;;;;;;10.57;56.08;95715.44;4970359;28;20026;-72
2021/11/15 02:32:56;;;;;;;37.22;22.27;;;;;;;10.67;56.27;95723.25;4970758;28;20397;-72
2021/11/15 02:35:23;;;;;;;38.35;21.02;;;;;;;10.81;56.13;95713.47;4971641;28;20113;-72
2021/11/15 02:37:49;;;;;;;43.85;22.08;;;;;;;10.99;55.51;95708.38;4977386;28;20105;-72
2021/11/15 02:40:17;;;;;;;35.15;20.20;;;;;;;11.16;54.88;95709.41;4981347;28;20026;-71
2021/11/15 02:42:44;;;;;;;37.97;21.73;;;;;;;11.11;54.75;95720.16;4984852;28;20019;-72
2021/11/15 02:45:11;;;;;;;38.03;21.00;;;;;;;11.23;53.89;95709.03;4974483;28;20049;-73
2021/11/15 02:47:37;;;;;;;37.60;21.08;;;;;;;10.71;55.81;95718.94;4974398;28;20027;-72
2021/11/15 02:50:06;;;;;;;40.15;21.33;;;;;;;10.91;55.38;95713.31;4973862;28;20031;-72
2021/11/15 02:52:31;;;;;;;36.33;21.55;;;;;;;10.89;55.04;95707.47;4981031;28;20030;-72
2021/11/15 02:55:01;;;;;;;33.45;19.83;;;;;;;11.10;54.67;95707.91;4985030;28;20089;-72
2021/11/15 02:57:27;;;;;;;39.10;21.63;;;;;;;11.21;53.91;95724.53;4990583;28;20022;-72
2021/11/15 02:59:53;;;;;;;37.28;20.98;;;;;;;11.08;54.87;95731.38;4992545;28;20022;-72
2021/11/15 03:02:23;;;;;;;36.75;20.65;;;;;;;10.98;54.63;95720.13;4993681;28;20034;-71
2021/11/15 03:04:49;;;;;;;36.35;20.67;;;;;;;10.88;54.84;95716.53;4993251;28;20026;-71
2021/11/15 03:07:14;;;;;;;40.85;22.33;;;;;;;10.82;54.71;95709.72;4993243;28;20026;-71
2021/11/15 03:09:40;;;;;;;37.92;22.25;;;;;;;11.28;54.95;95722.25;4977400;28;20037;-72
2021/11/15 03:12:10;;;;;;;39.25;22.35;;;;;;;10.50;55.96;95707.03;4985462;28;20058;-71
2021/11/15 03:14:36;;;;;;;41.55;22.50;;;;;;;10.37;57.36;95711.19;4973894;28;20026;-71
2021/11/15 03:17:03;;;;;;;41.47;22.02;;;;;;;10.27;57.12;95712.13;4972644;28;20033;-71
2021/11/15 03:19:28;;;;;;;39.72;22.33;;;;;;;11.04;56.11;95714.41;4973606;28;20070;-72
2021/11/15 03:21:53;;;;;;;39.47;22.27;;;;;;;11.16;54.98;95705.97;4973965;28;20416;-72
2021/11/15 03:24:19;;;;;;;38.78;21.88;;;;;;;11.12;55.32;95707.63;4984424;28;20046;-72
2021/11/15 03:26:44;;;;;;;36.60;21.88;;;;;;;11.12;54.66;95697.78;4975276;28;20458;-73
2021/11/15 03:29:10;;;;;;;43.28;23.40;;;;;;;11.44;54.62;95712.09;4975778;28;20056;-73
2021/11/15 03:31:35;;;;;;;37.95;21.42;;;;;;;11.38;54.04;95716.75;4973412;28;20540;-72
2021/11/15 03:34:11;;;;;;;39.22;21.88;;;;;;;11.38;54.70;95714.06;4972127;28;20045;-72
2021/11/15 03:36:38;;;;;;;33.05;20.50;;;;;;;11.51;54.15;95717.81;4973528;28;20023;-73
2021/11/15 03:39:08;;;;;;;36.55;20.42;;;;;;;11.28;54.40;95713.47;4984085;28;20023;-72
2021/11/15 03:41:36;;;;;;;32.60;19.85;;;;;;;10.48;55.32;95698.53;4984711;28;20014;-74
2021/11/15 03:44:02;;;;;;;35.03;20.15;;;;;;;10.91;55.09;95715.97;4976128;28;20027;-72
2021/11/15 03:46:28;;;;;;;29.67;19.08;;;;;;;10.41;55.95;95715.66;4972376;28;20034;-73
2021/11/15 03:48:53;;;;;;;32.35;18.75;;;;;;;10.28;56.61;95711.06;4973177;28;20431;-72
2021/11/15 03:51:19;;;;;;;35.33;20.13;;;;;;;10.74;56.05;95712.25;4971822;28;20101;-71
2021/11/15 03:53:45;;;;;;;29.42;18.80;;;;;;;10.65;55.34;95717.44;4979656;28;20023;-72
2021/11/15 03:56:14;;;;;;;30.50;19.55;;;;;;;10.27;57.32;95717.44;4989993;28;20026;-73
2021/11/15 03:58:43;;;;;;;35.30;19.52;;;;;;;10.22;57.25;95717.50;4979915;28;20085;-71
2021/11/15 04:01:09;;;;;;;31.92;18.50;;;;;;;10.28;56.79;95700.41;4972687;28;20369;-72
2021/11/15 04:03:37;;;;;;;30.98;17.88;;;;;;;10.35;57.10;95700.88;4972955;28;20114;-71
2021/11/15 04:06:08;;;;;;;28.20;17.98;;;;;;;10.61;56.46;95695.16;4972981;28;20030;-71
2021/11/15 04:08:34;;;;;;;37.03;19.88;;;;;;;10.39;56.98;95709.84;4978713;28;20073;-72
2021/11/15 04:11:02;;;;;;;37.83;21.00;;;;;;;10.84;55.95;95704.09;4983866;28;20038;-72
2021/11/15 04:13:33;;;;;;;33.33;18.98;;;;;;;10.79;55.99;95717.47;4983879;28;20388;-72
2021/11/15 04:16:04;;;;;;;31.65;20.63;;;;;;;10.59;55.99;95699.97;4992498;28;20427;-72
2021/11/15 04:18:34;;;;;;;32.30;19.88;;;;;;;10.21;57.10;95693.84;4992355;28;20038;-72
2021/11/15 04:21:00;;;;;;;35.50;20.88;;;;;;;10.19;57.56;95707.44;4991799;28;20084;-72
2021/11/15 04:23:26;;;;;;;37.03;20.95;;;;;;;10.16;58.02;95697.38;4988695;28;20515;-72
2021/11/15 04:25:52;;;;;;;40.38;19.88;;;;;;;9.79;58.97;95714.88;4986799;28;20030;-72
2021/11/15 04:28:17;;;;;;;33.42;20.50;;;;;;;10.03;58.69;95700.72;4982285;28;20358;-72
2021/11/15 04:30:43;;;;;;;33.35;19.05;;;;;;;10.08;58.17;95708.63;4972356;28;20077;-72
2021/11/15 04:33:09;;;;;;;34.10;19.33;;;;;;;10.76;57.34;95700.25;4954864;28;20122;-74
2021/11/15 04:35:36;;;;;;;33.53;20.02;;;;;;;10.95;56.93;95689.53;4972543;28;20050;-71
2021/11/15 04:38:02;;;;;;;33.00;19.23;;;;;;;10.86;55.24;95686.78;4976632;28;20122;-72
2021/11/15 04:40:28;;;;;;;37.90;19.55;;;;;;;10.99;55.71;95677.22;4983803;28;20050;-73
2021/11/15 04:42:53;;;;;;;35.10;19.65;;;;;;;11.08;55.21;95698.66;4980347;28;20023;-72
2021/11/15 04:45:19;;;;;;;31.33;17.65;;;;;;;11.04;55.19;95681.66;4990679;28;20105;-72
2021/11/15 04:47:47;;;;;;;28.92;17.33;;;;;;;10.99;54.87;95679.09;4992196;28;20026;-72
2021/11/15 04:50:12;;;;;;;30.10;17.42;;;;;;;11.08;55.08;95674.69;4992190;28;20573;-72
2021/11/15 04:52:38;;;;;;;29.95;17.55;;;;;;;11.22;54.83;95696.00;4992028;28;20061;-72
2021/11/15 04:55:06;;;;;;;38.30;20.55;;;;;;;11.33;54.59;95695.53;4983410;28;20011;-71
2021/11/15 04:57:32;;;;;;;29.27;17.95;;;;;;;11.24;54.88;95645.91;4983190;28;20076;-72
2021/11/15 05:00:00;;;;;;;31.92;18.10;;;;;;;11.60;53.90;95686.75;4976021;28;20035;-72
2021/11/15 05:02:28;;;;;;;35.70;18.40;;;;;;;11.29;54.66;95699.06;4972298;28;20030;-71
2021/11/15 05:04:54;;;;;;;23.40;16.75;;;;;;;11.56;54.58;95682.31;4971638;28;20023;-72
2021/11/15 05:07:21;;;;;;;33.35;19.73;;;;;;;11.69;53.63;95687.63;4971502;28;20037;-72
2021/11/15 05:09:46;;;;;;;34.13;19.50;;;;;;;11.37;54.10;95680.53;4985960;28;20504;-72
2021/11/15 05:12:12;;;;;;;29.52;18.60;;;;;;;11.64;53.70;95678.97;4989042;28;20022;-72
2021/11/15 05:14:37;;;;;;;34.70;19.30;;;;;;;11.15;54.79;95683.06;4991200;28;20080;-72
2021/11/15 05:17:03;;;;;;;32.55;18.38;;;;;;;11.31;54.46;95689.72;4991458;28;20823;-72
2021/11/15 05:19:28;;;;;;;33.50;18.58;;;;;;;11.34;54.71;95686.44;4991140;28;20034;-72
2021/11/15 05:21:54;;;;;;;36.88;19.80;;;;;;;11.25;54.55;95685.53;4991438;28;20468;-71
2021/11/15 05:24:20;;;;;;;32.38;17.90;;;;;;;11.08;54.62;95683.47;4988871;28;20066;-72
2021/11/15 05:26:46;;;;;;;34.58;19.13;;;;;;;10.76;55.55;95686.16;4985511;28;20717;-73
2021/11/15 05:29:11;;;;;;;36.53;19.67;;;;;;;11.02;54.97;95691.84;4990878;28;20022;-72
2021/11/15 05:31:37;;;;;;;35.95;19.05;;;;;;;11.31;54.58;95696.88;4991510;28;20077;-72
2021/11/15 05:34:03;;;;;;;33.63;18.50;;;;;;;11.52;54.69;95692.78;4991234;28;20019;-73
2021/11/15 05:36:28;;;;;;;30.17;17.35;;;;;;;11.69;53.92;95703.63;4991080;28;20114;-73
2021/11/15 05:38:54;;;;;;;40.20;18.90;;;;;;;11.62;54.07;95684.59;4990748;28;20130;-73
2021/11/15 05:41:20;;;;;;;32.10;18.08;;;;;;;11.71;53.48;95692.66;4972702;28;20366;-70
2021/11/15 05:43:45;;;;;;;34.75;19.48;;;;;;;11.34;53.91;95702.44;4979431;28;20023;-71
2021/11/15 05:46:11;;;;;;;35.80;19.35;;;;;;;11.11;54.75;95722.81;4971555;28;20027;-73
2021/11/15 05:48:36;;;;;;;26.45;16.63;;;;;;;11.05;54.16;95699.22;4971256;28;20027;-73
2021/11/15 05:51:02;;;;;;;31.52;17.90;;;;;;;11.16;55.03;95706.75;4969385;28;20389;-69
2021/11/15 05:53:28;;;;;;;26.45;16.45;;;;;;;11.01;55.05;95723.00;4975677;28;20068;-71
2021/11/15 05:55:53;;;;;;;32.22;18.60;;;;;;;10.76;55.30;95708.22;4980088;28;20034;-71
2021/11/15 05:58:18;;;;;;;28.20;16.92;;;;;;;10.78;55.27;95716.69;4980901;28;20197;-74
2021/11/15 06:00:44;;;;;;;31.10;18.00;;;;;;;10.84;55.45;95722.72;4990425;28;20030;-79
2021/11/15 06:03:10;;;;;;;34.50;17.50;;;;;;;11.18;54.57;95709.13;4991512;28;20069;-68
2021/11/15 06:05:36;;;;;;;32.88;18.45;;;;;;;10.99;55.51;95727.00;4973043;28;20165;-71
2021/11/15 06:08:01;;;;;;;35.97;19.77;;;;;;;11.31;54.58;95721.69;4989820;28;20030;-71
2021/11/15 06:10:27;;;;;;;33.33;18.48;;;;;;;11.28;54.93;95719.59;4981588;28;20145;-71
2021/11/15 06:12:52;;;;;;;31.50;17.95;;;;;;;11.32;54.15;95720.59;4989742;28;20037;-71
2021/11/15 06:15:21;;;;;;;35.70;18.65;;;;;;;11.57;54.50;95715.88;4973923;28;20019;-72
2021/11/15 06:17:49;;;;;;;36.83;18.90;;;;;;;11.35;54.67;95714.66;4970443;28;20412;-72
2021/11/15 06:20:16;;;;;;;30.25;18.38;;;;;;;10.82;55.04;95712.38;4970278;28;20556;-72
2021/11/15 06:22:43;;;;;;;32.75;17.88;;;;;;;11.30;54.41;95705.97;4988520;28;20034;-72
2021/11/15 06:25:10;;;;;;;30.83;17.85;;;;;;;11.19;53.94;95719.47;4981739;28;20755;-72
2021/11/15 06:27:36;;;;;;;31.77;16.83;;;;;;;11.36;54.22;95724.25;4989804;28;20073;-71
2021/11/15 06:30:05;;;;;;;33.47;17.58;;;;;;;11.03;54.62;95720.03;4972830;28;20520;-71
2021/11/15 06:32:31;;;;;;;29.85;17.35;;;;;;;10.63;55.89;95722.25;4970572;28;20031;-72
2021/11/15 06:34:57;;;;;;;29.52;17.15;;;;;;;11.03;55.31;95730.69;4970373;28;20030;-72
2021/11/15 06:37:24;;;;;;;32.80;17.33;;;;;;;11.15;54.96;95720.34;4969240;28;20560;-72
2021/11/15 06:39:50;;;;;;;26.58;16.00;;;;;;;11.04;54.68;95726.94;4977776;28;20035;-73
2021/11/15 06:42:16;;;;;;;31.73;18.40;;;;;;;10.72;55.84;95733.03;4987909;28;20031;-72
2021/11/15 06:44:41;;;;;;;28.58;17.63;;;;;;;10.62;56.37;95737.44;4989499;28;20026;-72
2021/11/15 06:47:07;;;;;;;37.65;19.13;;;;;;;10.56;56.47;95727.16;4989789;28;20031;-72
2021/11/15 06:49:33;;;;;;;34.42;17.52;;;;;;;10.78;55.65;95715.91;4989353;28;20022;-72
2021/11/15 06:51:58;;;;;;;28.00;16.92;;;;;;;10.77;55.18;95722.31;4989727;28;20034;-72
2021/11/15 06:54:24;;;;;;;27.48;16.90;;;;;;;10.97;55.36;95729.97;4988390;28;20074;-72
2021/11/15 06:56:50;;;;;;;27.08;16.02;;;;;;;10.59;55.84;95730.00;4981328;28;20044;-71
2021/11/15 06:59:15;;;;;;;25.50;16.88;;;;;;;10.46;55.77;95741.41;4989457;28;20041;-71
2021/11/15 07:01:41;;;;;;;23.77;15.55;;;;;;;10.39;55.12;95746.28;4989892;28;20034;-71
2021/11/15 07:04:09;;;;;;;22.92;14.75;;;;;;;10.16;56.88;95754.00;4989603;28;20399;-71
2021/11/15 07:06:38;;;;;;;21.77;15.02;;;;;;;10.20;56.66;95735.59;4990261;28;20034;-72
2021/11/15 07:09:06;;;;;;;20.05;14.30;;;;;;;10.47;55.76;95769.56;4990094;28;20030;-71
2021/11/15 07:11:34;;;;;;;18.90;13.13;;;;;;;10.43;55.57;95776.53;4981479;28;20018;-72
2021/11/15 07:14:00;;;;;;;18.45;13.63;;;;;;;10.51;56.10;95762.59;4981369;28;20027;-71
2021/11/15 07:16:25;;;;;;;23.30;13.85;;;;;;;10.47;55.65;95772.22;4989483;28;20029;-70
2021/11/15 07:18:53;;;;;;;20.30;14.23;;;;;;;10.21;56.31;95778.94;4972121;28;20142;-71
2021/11/15 07:21:20;;;;;;;23.85;15.80;;;;;;;10.45;56.02;95782.38;4989518;28;20023;-72
2021/11/15 07:23:46;;;;;;;26.20;15.93;;;;;;;10.75;54.71;95767.84;4989311;28;20403;-72
2021/11/15 07:26:12;;;;;;;24.48;16.23;;;;;;;10.73;54.78;95766.53;4981016;28;20026;-71
2021/11/15 07:28:38;;;;;;;24.17;15.93;;;;;;;10.29;55.64;95749.88;4985248;28;20482;-71
2021/11/15 07:31:03;;;;;;;22.85;15.32;;;;;;;10.77;55.42;95762.22;4972998;28;20639;-72
2021/11/15 07:33:29;;;;;;;29.77;17.88;;;;;;;10.40;56.22;95759.28;4973245;28;20038;-71
2021/11/15 07:35:54;;;;;;;29.95;17.75;;;;;;;11.03;55.05;95765.28;4973525;28;20047;-71
2021/11/15 07:38:21;;;;;;;30.73;18.45;;;;;;;11.16;55.02;95767.22;4973332;28;20499;-72
2021/11/15 07:40:47;;;;;;;32.42;18.88;;;;;;;11.23;54.04;95762.28;4985125;28;20018;-67
2021/11/15 07:43:14;;;;;;;28.45;16.88;;;;;;;11.55;54.96;95766.00;4992511;28;20026;-71
2021/11/15 07:45:40;;;;;;;28.00;17.35;;;;;;;11.72;53.12;95771.56;4991165;28;20122;-70
2021/11/15 07:48:06;;;;;;;24.10;16.70;;;;;;;11.74;52.65;95771.25;4992603;28;20032;-71
2021/11/15 07:50:32;;;;;;;23.58;17.60;;;;;;;11.83;53.16;95782.84;4992532;28;20105;-71
2021/11/15 07:52:57;;;;;;;23.77;15.43;;;;;;;11.83;52.92;95780.97;4992271;28;20026;-71
2021/11/15 07:55:23;;;;;;;19.02;13.88;;;;;;;12.02;52.42;95777.38;4984176;28;20023;-74
2021/11/15 07:57:49;;;;;;;21.70;13.88;;;;;;;12.09;51.76;95773.25;4992095;28;20365;-70
2021/11/15 08:00:17;;;;;;;18.50;13.77;;;;;;;11.81;51.41;95771.63;4974948;28;20027;-74
2021/11/15 08:02:44;;;;;;;16.42;12.38;;;;;;;12.11;51.05;95764.94;4978958;28;20035;-72
2021/11/15 08:05:11;;;;;;;18.98;13.07;;;;;;;12.22;50.93;95764.44;4992361;28;20313;-71
2021/11/15 08:07:37;;;;;;;16.95;12.38;;;;;;;12.19;51.05;95765.03;4992457;28;20077;-73
2021/11/15 08:10:05;;;;;;;13.10;11.65;;;;;;;12.46;50.86;95769.53;4991764;28;20692;-70
2021/11/15 08:12:36;;;;;;;15.25;11.75;;;;;;;12.30;50.57;95770.16;4984096;28;20033;-70
2021/11/15 08:15:06;;;;;;;15.32;12.57;;;;;;;12.48;50.85;95771.91;4976199;28;20109;-70
2021/11/15 08:17:31;;;;;;;12.55;11.10;;;;;;;12.48;50.36;95777.22;4972916;28;20089;-69
2021/11/15 08:19:57;;;;;;;12.77;10.45;;;;;;;12.42;49.53;95770.44;4972235;28;20022;-69
2021/11/15 08:22:22;;;;;;;12.82;11.13;;;;;;;11.73;49.83;95725.16;4972763;28;20018;-67
2021/11/15 08:25:00;;;;;;;12.50;11.20;;;;;;;11.61;51.58;95780.78;4984801;28;20030;-68
2021/11/15 08:27:27;;;;;;;13.57;10.30;;;;;;;11.38;51.61;95788.66;4989921;28;20029;-66
2021/11/15 08:29:55;;;;;;;13.20;9.45;;;;;;;11.31;52.32;95785.59;4983557;28;20073;-67
2021/11/15 08:32:24;;;;;;;13.95;10.95;;;;;;;11.61;51.38;95767.47;4972393;28;20038;-68
2021/11/15 08:34:55;;;;;;;14.07;11.13;;;;;;;11.77;50.69;95784.75;4972026;28;20026;-65
2021/11/15 08:37:21;;;;;;;12.57;10.40;;;;;;;12.21;50.47;95781.53;4972243;28;20034;-72
2021/11/15 08:39:47;;;;;;;11.13;9.15;;;;;;;12.08;50.43;95776.19;4990333;28;20365;-69
2021/11/15 08:42:12;;;;;;;10.70;9.60;;;;;;;12.17;49.91;95777.88;4982613;28;20432;-69
2021/11/15 08:44:41;;;;;;;13.35;10.00;;;;;;;11.96;50.76;95777.50;4986627;28;20019;-69
2021/11/15 08:47:07;;;;;;;13.85;9.88;;;;;;;11.91;51.13;95796.25;4971989;28;20510;-70
2021/11/15 08:49:36;;;;;;;10.75;9.63;;;;;;;12.12;50.51;95785.97;4971858;28;20035;-75
2021/11/15 08:52:05;;;;;;;10.80;9.70;;;;;;;12.47;49.94;95792.47;4971691;28;20023;-70
2021/11/15 08:54:31;;;;;;;11.88;10.23;;;;;;;12.35;49.39;95788.75;4978241;28;20088;-67
2021/11/15 08:57:02;;;;;;;10.77;9.48;;;;;;;12.49;49.63;95771.63;4983015;28;20023;-70
2021/11/15 08:59:28;;;;;;;13.23;11.15;;;;;;;12.67;49.61;95788.56;4988101;28;20492;-70
2021/11/15 09:01:54;;;;;;;16.70;11.90;;;;;;;12.69;49.22;95786.41;4972277;28;20043;-73
2021/11/15 09:04:20;;;;;;;12.10;10.88;;;;;;;12.53;49.58;95779.00;4972063;28;20058;-73
2021/11/15 09:06:47;;;;;;;13.68;11.00;;;;;;;12.25;49.95;95780.94;4972265;28;20495;-73
2021/11/15 09:09:14;;;;;;;12.93;10.57;;;;;;;12.02;50.34;95780.84;4975159;28;20026;-71
2021/11/15 09:11:51;;;;;;;12.05;10.45;;;;;;;12.14;50.57;95777.69;4981337;28;20023;-73
2021/11/15 09:14:19;;;;;;;10.70;9.60;;;;;;;12.38;50.23;95785.44;4981141;28;20031;-73
2021/11/15 09:16:46;;;;;;;12.68;10.27;;;;;;;12.26;50.17;95785.97;4991003;28;20022;-73
2021/11/15 09:19:13;;;;;;;12.20;10.75;;;;;;;11.73;50.41;95777.66;4990771;28;20053;-73
2021/11/15 09:21:40;;;;;;;10.65;9.55;;;;;;;12.32;50.75;95775.97;4990956;28;20018;-71
2021/11/15 09:24:05;;;;;;;10.55;9.40;;;;;;;11.94;50.82;95769.00;4990324;28;20022;-71
2021/11/15 09:26:31;;;;;;;11.18;9.68;;;;;;;12.03;50.85;95782.44;4982462;28;20069;-72
2021/11/15 09:29:01;;;;;;;11.25;8.95;;;;;;;12.00;50.95;95782.25;4990155;28;20037;-70
2021/11/15 09:31:27;;;;;;;10.70;9.60;;;;;;;12.37;50.05;95783.88;4971566;28;20476;-70
2021/11/15 09:33:54;;;;;;;12.07;10.13;;;;;;;12.86;49.46;95764.38;4970944;28;20030;-72
2021/11/15 09:36:24;;;;;;;12.48;10.93;;;;;;;12.86;48.93;95772.41;4970992;28;20507;-70
2021/11/15 09:38:52;;;;;;;11.85;10.25;;;;;;;13.06;48.94;95783.69;4971012;28;20421;-73
2021/11/15 09:41:18;;;;;;;13.55;10.63;;;;;;;12.99;48.47;95782.22;4981879;28;20026;-72
2021/11/15 09:43:43;;;;;;;11.13;9.93;;;;;;;13.06;48.30;95784.47;4989506;28;20087;-73
2021/11/15 09:46:18;;;;;;;13.40;9.95;;;;;;;13.29;48.07;95792.50;4973192;28;20213;-72
2021/11/15 09:48:52;;;;;;;12.13;9.70;;;;;;;13.45;47.96;95791.81;4970891;28;20117;-73
2021/11/15 09:51:19;;;;;;;11.13;10.00;;;;;;;12.96;48.10;95782.06;4970388;28;20361;-74
2021/11/15 09:53:45;;;;;;;11.75;10.25;;;;;;;13.08;47.88;95781.50;4970174;28;20074;-73
2021/11/15 09:56:14;;;;;;;12.10;10.60;;;;;;;12.26;49.84;95788.63;4980192;28;20027;-71
2021/11/15 09:58:41;;;;;;;13.60;10.68;;;;;;;12.82;49.56;95790.09;4989538;28;20117;-72
2021/11/15 10:01:06;;;;;;;11.90;10.00;;;;;;;12.71;48.95;95786.88;4989610;28;20037;-70
2021/11/15 10:03:33;;;;;;;10.68;9.57;;;;;;;12.73;49.13;95778.56;4989680;28;20101;-73
2021/11/15 10:05:58;;;;;;;10.38;9.38;;;;;;;12.93;48.98;95775.41;4989769;28;20495;-72
2021/11/15 10:08:24;;;;;;;10.52;9.50;;;;;;;13.30;48.39;95776.16;4990299;28;20034;-73
2021/11/15 10:10:57;;;;;;;12.25;9.65;;;;;;;13.24;47.92;95770.16;4983677;28;20696;-73
2021/11/15 10:13:31;;;;;;;12.27;9.88;;;;;;;13.20;47.73;95776.38;4981086;28;20030;-72
2021/11/15 10:15:59;;;;;;;13.57;9.57;;;;;;;12.92;47.94;95767.72;4974853;28;20023;-72
2021/11/15 10:18:30;;;;;;;11.23;9.57;;;;;;;12.75;48.81;95779.84;4970942;28;20026;-71
2021/11/15 10:20:56;;;;;;;11.52;9.70;;;;;;;12.69;48.84;95759.72;4970240;28;20034;-72
2021/11/15 10:23:31;;;;;;;11.48;9.98;;;;;;;12.98;48.56;95763.84;4970463;28;20027;-73
2021/11/15 10:26:01;;;;;;;13.50;10.63;;;;;;;12.44;48.50;95738.94;4981354;28;20022;-72
2021/11/15 10:28:30;;;;;;;12.25;11.05;;;;;;;12.47;49.43;95773.00;4989218;28;20072;-71
2021/11/15 10:30:56;;;;;;;11.00;9.85;;;;;;;12.45;49.33;95773.31;4974344;28;20023;-73
2021/11/15 10:33:37;;;;;;;14.05;11.73;;;;;;;12.38;49.36;95772.13;4970108;28;20078;-71
2021/11/15 10:36:03;;;;;;;12.75;11.23;;;;;;;12.68;48.95;95760.00;4970373;28;20034;-77
2021/11/15 10:38:50;;;;;;;12.02;10.77;;;;;;;12.38;49.73;95764.91;4970561;28;20164;-67
2021/11/15 10:41:21;;;;;;;12.68;11.10;;;;;;;12.47;49.62;95767.66;4981992;28;20032;-69
2021/11/15 10:43:56;;;;;;;14.35;11.43;;;;;;;12.41;49.65;95737.63;4977947;28;20046;-67
2021/11/15 10:46:32;;;;;;;11.00;9.90;;;;;;;12.38;49.98;95761.44;4988766;28;20077;-68
2021/11/15 10:48:59;;;;;;;12.55;10.50;;;;;;;12.34;49.89;95752.47;4989042;28;20101;-66
2021/11/15 10:51:49;;;;;;;14.65;10.68;;;;;;;12.32;50.13;95755.44;4989464;28;20030;-67
2021/11/15 10:55:01;;;;;;;12.75;10.35;;;;;;;12.46;49.39;95758.06;4989260;28;20154;-70
2021/11/15 10:57:39;;;;;;;11.77;10.45;;;;;;;12.58;49.50;95746.88;4984830;28;20027;-67
2021/11/15 11:00:04;;;;;;;13.38;10.23;;;;;;;12.73;49.21;95751.88;4978176;28;20120;-73
2021/11/15 11:02:31;;;;;;;13.57;11.18;;;;;;;12.88;49.03;95748.84;4970963;28;20039;-70
2021/11/15 11:05:12;;;;;;;12.05;10.70;;;;;;;12.42;49.29;95749.88;4972452;28;20483;-71
2021/11/15 11:07:39;;;;;;;11.35;10.25;;;;;;;12.45;49.53;95754.63;4974191;28;20030;-73
2021/11/15 11:10:07;;;;;;;13.38;10.48;;;;;;;12.47;49.34;95749.75;4981301;28;20026;-77
2021/11/15 11:12:40;;;;;;;13.75;12.05;;;;;;;12.68;49.41;95747.44;4979969;28;20109;-73
2021/11/15 11:15:38;;;;;;;13.35;11.25;;;;;;;12.40;49.65;95759.28;4977403;28;20492;-80
2021/11/15 11:26:29;;;;;;;13.80;11.55;;;;;;;12.75;48.60;95749.69;4982831;28;20023;-70
2021/11/15 11:28:58;;;;;;;12.95;11.57;;;;;;;12.70;48.61;95739.13;4992593;28;20041;-72